PWSweather.com
Personal Weather Stations
Station Observations
KM01CL
Kitemaniak 01, Castiglione Del LagoIT 06061

Kitemaniak 01Castiglione Del LagoIT 06061

Lat: 43.133808, Lon: 12.045753

Elevation: 997

Station Type: Ventus W831

High Low Average
Temperature 118.8°F48.2°C 77.7°F25.4°C 103.4°F39.7°C
Dew Point 65.6°F18.7°C 47.6°F8.7°C 55.3°F12.9°C
Winds 13.0 mph 20.9 kmh Calm Calm 3.0 mph SE4.8 kmh SE
Wind Gusts 14.5 mph23.3 kmh -- 3.0 mph4.8 kmh
Humidity 43% 11% 22%
Pressure 30.31 in1026.4 mb 30.23 in1023.7 mb -
Precipitation 6.94 in176.3 mm - -
Hour Temp Dew Point Humidity Winds Wind Gusts Pressure Precip Precip Rate Daily Precip Total
12:00 AM 78.3°F25.7°C 53.9°F12.2°C 43% 12.1 mph SE19.5 kmh SE 13.0 mph20.9 kmh 30.23 in1023.7 mb 6.94 in176.3 mm 0.00 in0.0 mm 6.94 in176.3 mm
12:04 AM 78.3°F25.7°C 52.6°F11.4°C 41% 13.0 mph SE20.9 kmh SE 14.5 mph23.3 kmh 30.24 in1024.0 mb 6.94 in176.3 mm 0.00 in0.0 mm 6.94 in176.3 mm
12:06 AM 78.3°F25.7°C 53.9°F12.2°C 43% 12.1 mph SE19.5 kmh SE 13.7 mph22.0 kmh 30.24 in1024.0 mb 6.94 in176.3 mm 0.00 in0.0 mm 6.94 in176.3 mm
12:08 AM 78.1°F25.6°C 53.1°F11.7°C 42% 11.4 mph SE18.3 kmh SE 14.5 mph23.3 kmh 30.23 in1023.7 mb 6.94 in176.3 mm 0.00 in0.0 mm 6.94 in176.3 mm
12:10 AM 78.1°F25.6°C 52.4°F11.3°C 41% 12.1 mph SE19.5 kmh SE 13.0 mph20.9 kmh 30.24 in1024.0 mb 6.94 in176.3 mm 0.00 in0.0 mm 6.94 in176.3 mm
12:16 AM 77.9°F25.5°C 51.6°F10.9°C 40% 7.6 mph SE12.2 kmh SE 9.2 mph14.8 kmh 30.23 in1023.7 mb 6.94 in176.3 mm 0.00 in0.0 mm 6.94 in176.3 mm
12:18 AM 77.9°F25.5°C 52.3°F11.3°C 41% 9.8 mph SE15.8 kmh SE 11.4 mph18.3 kmh 30.25 in1024.4 mb 6.94 in176.3 mm 0.00 in0.0 mm 6.94 in176.3 mm
12:23 AM 78.1°F25.6°C 52.4°F11.3°C 41% 9.8 mph SE15.8 kmh SE 11.4 mph18.3 kmh 30.25 in1024.4 mb 6.94 in176.3 mm 0.00 in0.0 mm 6.94 in176.3 mm
12:25 AM 78.1°F25.6°C 53.1°F11.7°C 42% 9.2 mph SE14.8 kmh SE 10.7 mph17.2 kmh 30.25 in1024.4 mb 6.94 in176.3 mm 0.00 in0.0 mm 6.94 in176.3 mm
12:27 AM 78.1°F25.6°C 53.7°F12.1°C 43% 9.8 mph SE15.8 kmh SE 10.7 mph17.2 kmh 30.24 in1024.0 mb 6.94 in176.3 mm 0.00 in0.0 mm 6.94 in176.3 mm
12:29 AM 78.1°F25.6°C 52.4°F11.3°C 41% 9.2 mph SE14.8 kmh SE 10.7 mph17.2 kmh 30.25 in1024.4 mb 6.94 in176.3 mm 0.00 in0.0 mm 6.94 in176.3 mm
12:33 AM 77.9°F25.5°C 51.6°F10.9°C 40% 8.3 mph SE13.4 kmh SE 9.8 mph15.8 kmh 30.24 in1024.0 mb 6.94 in176.3 mm 0.00 in0.0 mm 6.94 in176.3 mm
12:35 AM 77.9°F25.5°C 51.6°F10.9°C 40% 9.2 mph SE14.8 kmh SE 10.7 mph17.2 kmh 30.24 in1024.0 mb 6.94 in176.3 mm 0.00 in0.0 mm 6.94 in176.3 mm
12:37 AM 77.9°F25.5°C 51.6°F10.9°C 40% 8.3 mph SE13.4 kmh SE 9.2 mph14.8 kmh 30.24 in1024.0 mb 6.94 in176.3 mm 0.00 in0.0 mm 6.94 in176.3 mm
12:39 AM 77.9°F25.5°C 48.0°F8.9°C 35% 9.8 mph SE15.8 kmh SE 10.7 mph17.2 kmh 30.25 in1024.4 mb 6.94 in176.3 mm 0.00 in0.0 mm 6.94 in176.3 mm
12:41 AM 77.9°F25.5°C 52.3°F11.3°C 41% 5.4 mph SE8.7 kmh SE 6.0 mph9.7 kmh 30.25 in1024.4 mb 6.94 in176.3 mm 0.00 in0.0 mm 6.94 in176.3 mm
12:43 AM 77.7°F25.4°C 52.1°F11.2°C 41% 7.6 mph SE12.2 kmh SE 9.2 mph14.8 kmh 30.24 in1024.0 mb 6.94 in176.3 mm 0.00 in0.0 mm 6.94 in176.3 mm
12:04 PM 100.4°F38.0°C 52.0°F11.1°C 20% 3.1 mph SE5.0 kmh SE 3.8 mph6.1 kmh 30.31 in1026.4 mb 6.94 in176.3 mm 10.68 in271.3 mm 13.89 in352.8 mm
12:06 PM 100.2°F37.9°C 51.8°F11.0°C 20% 3.1 mph SE5.0 kmh SE 3.8 mph6.1 kmh 30.30 in1026.1 mb 6.94 in176.3 mm 0.00 in0.0 mm 13.89 in352.8 mm
12:08 PM 100.2°F37.9°C 51.8°F11.0°C 20% 3.1 mph SE5.0 kmh SE 3.8 mph6.1 kmh 30.30 in1026.1 mb 6.94 in176.3 mm 0.00 in0.0 mm 13.89 in352.8 mm
12:10 PM 100.0°F37.8°C 51.7°F10.9°C 20% 3.1 mph SE5.0 kmh SE 3.8 mph6.1 kmh 30.30 in1026.1 mb 6.94 in176.3 mm 0.00 in0.0 mm 13.89 in352.8 mm
12:12 PM 100.0°F37.8°C 51.7°F10.9°C 20% 2.2 mph SE3.5 kmh SE 3.1 mph5.0 kmh 30.30 in1026.1 mb 6.94 in176.3 mm 0.00 in0.0 mm 13.89 in352.8 mm
12:14 PM 100.2°F37.9°C 53.2°F11.8°C 21% 2.2 mph SE3.5 kmh SE 3.1 mph5.0 kmh 30.30 in1026.1 mb 6.94 in176.3 mm 0.00 in0.0 mm 13.89 in352.8 mm
12:16 PM 100.2°F37.9°C 53.2°F11.8°C 21% 2.2 mph SE3.5 kmh SE 3.1 mph5.0 kmh 30.31 in1026.4 mb 6.94 in176.3 mm 0.00 in0.0 mm 13.89 in352.8 mm
12:18 PM 100.4°F38.0°C 52.0°F11.1°C 20% 2.2 mph SE3.5 kmh SE 3.1 mph5.0 kmh 30.30 in1026.1 mb 6.94 in176.3 mm 0.00 in0.0 mm 13.89 in352.8 mm
12:20 PM 100.6°F38.1°C 53.5°F11.9°C 21% 1.6 mph SE2.6 kmh SE 3.1 mph5.0 kmh 30.31 in1026.4 mb 6.94 in176.3 mm 0.00 in0.0 mm 13.89 in352.8 mm
12:22 PM 100.9°F38.3°C 53.8°F12.1°C 21% 0.7 mph SE1.1 kmh SE 1.6 mph2.6 kmh 30.31 in1026.4 mb 6.94 in176.3 mm 0.00 in0.0 mm 13.89 in352.8 mm
12:24 PM 101.1°F38.4°C 53.9°F12.2°C 21% 0.7 mph SE1.1 kmh SE 1.6 mph2.6 kmh 30.31 in1026.4 mb 6.94 in176.3 mm 0.00 in0.0 mm 13.89 in352.8 mm
12:26 PM 101.5°F38.6°C 54.2°F12.3°C 21% 1.6 mph SE2.6 kmh SE 2.2 mph3.5 kmh 30.30 in1026.1 mb 6.94 in176.3 mm 0.00 in0.0 mm 13.89 in352.8 mm
12:28 PM 101.7°F38.7°C 54.4°F12.4°C 21% 1.6 mph SE2.6 kmh SE 2.2 mph3.5 kmh 30.30 in1026.1 mb 6.94 in176.3 mm 0.00 in0.0 mm 13.89 in352.8 mm
12:30 PM 102.0°F38.9°C 54.7°F12.6°C 21% 1.6 mph SE2.6 kmh SE 2.2 mph3.5 kmh 30.30 in1026.1 mb 6.94 in176.3 mm 0.00 in0.0 mm 13.89 in352.8 mm
12:32 PM 102.2°F39.0°C 54.8°F12.7°C 21% 1.6 mph SE2.6 kmh SE 2.2 mph3.5 kmh 30.30 in1026.1 mb 6.94 in176.3 mm 0.00 in0.0 mm 13.89 in352.8 mm
12:34 PM 102.2°F39.0°C 53.5°F11.9°C 20% 2.2 mph SE3.5 kmh SE 3.1 mph5.0 kmh 30.30 in1026.1 mb 6.94 in176.3 mm 0.00 in0.0 mm 13.89 in352.8 mm
12:36 PM 102.2°F39.0°C 53.5°F11.9°C 20% 3.1 mph SE5.0 kmh SE 3.1 mph5.0 kmh 30.30 in1026.1 mb 6.94 in176.3 mm 0.00 in0.0 mm 13.89 in352.8 mm
12:38 PM 102.2°F39.0°C 53.5°F11.9°C 20% 1.6 mph SE2.6 kmh SE 3.1 mph5.0 kmh 30.30 in1026.1 mb 6.94 in176.3 mm 0.00 in0.0 mm 13.89 in352.8 mm
12:40 PM 102.2°F39.0°C 53.5°F11.9°C 20% 2.2 mph SE3.5 kmh SE 3.1 mph5.0 kmh 30.29 in1025.7 mb 6.94 in176.3 mm 0.00 in0.0 mm 13.89 in352.8 mm
12:42 PM 102.4°F39.1°C 53.6°F12.0°C 20% 2.2 mph SE3.5 kmh SE 2.2 mph3.5 kmh 30.30 in1026.1 mb 6.94 in176.3 mm 0.00 in0.0 mm 13.89 in352.8 mm
12:44 PM 102.4°F39.1°C 54.9°F12.7°C 21% 2.2 mph SE3.5 kmh SE 3.1 mph5.0 kmh 30.30 in1026.1 mb 6.94 in176.3 mm 0.00 in0.0 mm 13.89 in352.8 mm
12:46 PM 102.4°F39.1°C 53.6°F12.0°C 20% 1.6 mph SE2.6 kmh SE 3.1 mph5.0 kmh 30.30 in1026.1 mb 6.94 in176.3 mm 0.00 in0.0 mm 13.89 in352.8 mm
12:48 PM 102.4°F39.1°C 54.9°F12.7°C 21% 1.6 mph SE2.6 kmh SE 2.2 mph3.5 kmh 30.30 in1026.1 mb 6.94 in176.3 mm 0.00 in0.0 mm 13.89 in352.8 mm
12:50 PM 102.6°F39.2°C 53.8°F12.1°C 20% 0.7 mph SE1.1 kmh SE 2.2 mph3.5 kmh 30.30 in1026.1 mb 6.94 in176.3 mm 0.00 in0.0 mm 13.89 in352.8 mm
12:52 PM 102.7°F39.3°C 53.9°F12.2°C 20% 0.7 mph SE1.1 kmh SE 1.6 mph2.6 kmh 30.30 in1026.1 mb 6.94 in176.3 mm 0.00 in0.0 mm 13.89 in352.8 mm
12:54 PM 102.7°F39.3°C 53.9°F12.2°C 20% 1.6 mph SE2.6 kmh SE 2.2 mph3.5 kmh 30.29 in1025.7 mb 6.94 in176.3 mm 0.00 in0.0 mm 13.89 in352.8 mm
12:56 PM 102.9°F39.4°C 54.0°F12.2°C 20% 0.7 mph SE1.1 kmh SE 1.6 mph2.6 kmh 30.30 in1026.1 mb 6.94 in176.3 mm 0.00 in0.0 mm 13.89 in352.8 mm
12:58 PM 102.9°F39.4°C 55.4°F13.0°C 21% 1.6 mph SE2.6 kmh SE 2.2 mph3.5 kmh 30.30 in1026.1 mb 6.94 in176.3 mm 0.00 in0.0 mm 13.89 in352.8 mm
01:00 PM 102.9°F39.4°C 54.0°F12.2°C 20% 2.2 mph SE3.5 kmh SE 2.2 mph3.5 kmh 30.30 in1026.1 mb 6.94 in176.3 mm 0.00 in0.0 mm 13.89 in352.8 mm
01:02 PM 102.9°F39.4°C 54.0°F12.2°C 20% 2.2 mph SE3.5 kmh SE 2.2 mph3.5 kmh 30.29 in1025.7 mb 6.94 in176.3 mm 0.00 in0.0 mm 13.89 in352.8 mm
01:04 PM 102.9°F39.4°C 54.0°F12.2°C 20% 2.2 mph SE3.5 kmh SE 2.2 mph3.5 kmh 30.29 in1025.7 mb 6.94 in176.3 mm 0.00 in0.0 mm 13.89 in352.8 mm
01:06 PM 103.1°F39.5°C 54.2°F12.3°C 20% 1.6 mph SE2.6 kmh SE 2.2 mph3.5 kmh 30.30 in1026.1 mb 6.94 in176.3 mm 0.00 in0.0 mm 13.89 in352.8 mm
01:08 PM 103.3°F39.6°C 54.3°F12.4°C 20% 1.6 mph SE2.6 kmh SE 2.2 mph3.5 kmh 30.30 in1026.1 mb 6.94 in176.3 mm 0.00 in0.0 mm 13.89 in352.8 mm
01:10 PM 103.3°F39.6°C 54.3°F12.4°C 20% 1.6 mph SE2.6 kmh SE 2.2 mph3.5 kmh 30.29 in1025.7 mb 6.94 in176.3 mm 0.00 in0.0 mm 13.89 in352.8 mm
01:13 PM 103.3°F39.6°C 54.3°F12.4°C 20% 1.6 mph SE2.6 kmh SE 2.2 mph3.5 kmh 30.29 in1025.7 mb 6.94 in176.3 mm 0.00 in0.0 mm 13.89 in352.8 mm
01:14 PM 103.5°F39.7°C 54.5°F12.5°C 20% 1.6 mph SE2.6 kmh SE 2.2 mph3.5 kmh 30.29 in1025.7 mb 6.94 in176.3 mm 0.00 in0.0 mm 13.89 in352.8 mm
01:17 PM 103.5°F39.7°C 54.5°F12.5°C 20% 1.6 mph SE2.6 kmh SE 3.1 mph5.0 kmh 30.29 in1025.7 mb 6.94 in176.3 mm 0.00 in0.0 mm 13.89 in352.8 mm
01:19 PM 103.6°F39.8°C 54.6°F12.6°C 20% 2.2 mph SE3.5 kmh SE 3.1 mph5.0 kmh 30.29 in1025.7 mb 6.94 in176.3 mm 0.00 in0.0 mm 13.89 in352.8 mm
01:21 PM 103.6°F39.8°C 54.6°F12.6°C 20% 1.6 mph SE2.6 kmh SE 3.1 mph5.0 kmh 30.29 in1025.7 mb 6.94 in176.3 mm 0.00 in0.0 mm 13.89 in352.8 mm
01:23 PM 103.8°F39.9°C 54.8°F12.7°C 20% 2.2 mph SE3.5 kmh SE 3.1 mph5.0 kmh 30.29 in1025.7 mb 6.94 in176.3 mm 0.00 in0.0 mm 13.89 in352.8 mm
01:25 PM 104.0°F40.0°C 54.9°F12.7°C 20% 2.2 mph SE3.5 kmh SE 3.1 mph5.0 kmh 30.29 in1025.7 mb 6.94 in176.3 mm 0.00 in0.0 mm 13.89 in352.8 mm
01:27 PM 104.0°F40.0°C 54.9°F12.7°C 20% 3.1 mph SE5.0 kmh SE 3.8 mph6.1 kmh 30.29 in1025.7 mb 6.94 in176.3 mm 0.00 in0.0 mm 13.89 in352.8 mm
01:29 PM 104.0°F40.0°C 54.9°F12.7°C 20% 3.1 mph SE5.0 kmh SE 3.8 mph6.1 kmh 30.29 in1025.7 mb 6.94 in176.3 mm 0.00 in0.0 mm 13.89 in352.8 mm
01:31 PM 104.0°F40.0°C 54.9°F12.7°C 20% 2.2 mph SE3.5 kmh SE 3.1 mph5.0 kmh 30.29 in1025.7 mb 6.94 in176.3 mm 0.00 in0.0 mm 13.89 in352.8 mm
01:33 PM 104.2°F40.1°C 55.1°F12.8°C 20% 3.1 mph SE5.0 kmh SE 3.8 mph6.1 kmh 30.29 in1025.7 mb 6.94 in176.3 mm 0.00 in0.0 mm 13.89 in352.8 mm
01:35 PM 104.2°F40.1°C 55.1°F12.8°C 20% 2.2 mph SE3.5 kmh SE 3.1 mph5.0 kmh 30.29 in1025.7 mb 6.94 in176.3 mm 0.00 in0.0 mm 13.89 in352.8 mm
01:37 PM 104.2°F40.1°C 55.1°F12.8°C 20% 3.1 mph SE5.0 kmh SE 3.8 mph6.1 kmh 30.30 in1026.1 mb 6.94 in176.3 mm 0.00 in0.0 mm 13.89 in352.8 mm
01:39 PM 104.2°F40.1°C 55.1°F12.8°C 20% 3.1 mph SE5.0 kmh SE 3.8 mph6.1 kmh 30.29 in1025.7 mb 6.94 in176.3 mm 0.00 in0.0 mm 13.89 in352.8 mm
01:41 PM 104.2°F40.1°C 56.4°F13.6°C 21% 2.2 mph SE3.5 kmh SE 3.1 mph5.0 kmh 30.29 in1025.7 mb 6.94 in176.3 mm 0.00 in0.0 mm 13.89 in352.8 mm
01:43 PM 104.4°F40.2°C 55.2°F12.9°C 20% 3.1 mph SE5.0 kmh SE 3.8 mph6.1 kmh 30.28 in1025.4 mb 6.94 in176.3 mm 0.00 in0.0 mm 13.89 in352.8 mm
01:45 PM 104.5°F40.3°C 55.4°F13.0°C 20% 2.2 mph SE3.5 kmh SE 3.1 mph5.0 kmh 30.29 in1025.7 mb 6.94 in176.3 mm 0.00 in0.0 mm 13.89 in352.8 mm
01:47 PM 104.7°F40.4°C 56.9°F13.8°C 21% 2.2 mph SE3.5 kmh SE 3.1 mph5.0 kmh 30.29 in1025.7 mb 6.94 in176.3 mm 0.00 in0.0 mm 13.89 in352.8 mm
01:49 PM 104.9°F40.5°C 55.7°F13.2°C 20% 2.2 mph SE3.5 kmh SE 2.2 mph3.5 kmh 30.29 in1025.7 mb 6.94 in176.3 mm 0.00 in0.0 mm 13.89 in352.8 mm
01:51 PM 105.3°F40.7°C 56.0°F13.3°C 20% 2.2 mph SE3.5 kmh SE 3.1 mph5.0 kmh 30.29 in1025.7 mb 6.94 in176.3 mm 0.00 in0.0 mm 13.89 in352.8 mm
01:53 PM 105.6°F40.9°C 56.2°F13.4°C 20% 1.6 mph SE2.6 kmh SE 2.2 mph3.5 kmh 30.29 in1025.7 mb 6.94 in176.3 mm 0.00 in0.0 mm 13.89 in352.8 mm
01:55 PM 105.8°F41.0°C 56.4°F13.6°C 20% 1.6 mph SE2.6 kmh SE 3.1 mph5.0 kmh 30.29 in1025.7 mb 6.94 in176.3 mm 0.00 in0.0 mm 13.89 in352.8 mm
01:57 PM 106.0°F41.1°C 57.9°F14.4°C 21% 3.8 mph SE6.1 kmh SE 5.4 mph8.7 kmh 30.29 in1025.7 mb 6.94 in176.3 mm 0.00 in0.0 mm 13.89 in352.8 mm
01:59 PM 106.0°F41.1°C 56.5°F13.6°C 20% 3.8 mph SE6.1 kmh SE 4.5 mph7.2 kmh 30.29 in1025.7 mb 6.94 in176.3 mm 0.00 in0.0 mm 13.89 in352.8 mm
02:01 PM 105.6°F40.9°C 56.2°F13.4°C 20% 3.8 mph SE6.1 kmh SE 5.4 mph8.7 kmh 30.29 in1025.7 mb 6.94 in176.3 mm 0.00 in0.0 mm 13.89 in352.8 mm
02:03 PM 105.4°F40.8°C 56.1°F13.4°C 20% 3.8 mph SE6.1 kmh SE 4.5 mph7.2 kmh 30.28 in1025.4 mb 6.94 in176.3 mm 0.00 in0.0 mm 13.89 in352.8 mm
02:05 PM 105.1°F40.6°C 55.8°F13.2°C 20% 3.8 mph SE6.1 kmh SE 4.5 mph7.2 kmh 30.29 in1025.7 mb 6.94 in176.3 mm 0.00 in0.0 mm 13.89 in352.8 mm
02:07 PM 104.9°F40.5°C 55.7°F13.2°C 20% 3.8 mph SE6.1 kmh SE 4.5 mph7.2 kmh 30.29 in1025.7 mb 6.94 in176.3 mm 0.00 in0.0 mm 13.89 in352.8 mm
02:09 PM 104.7°F40.4°C 55.5°F13.1°C 20% 3.1 mph SE5.0 kmh SE 3.8 mph6.1 kmh 30.29 in1025.7 mb 6.94 in176.3 mm 0.00 in0.0 mm 13.89 in352.8 mm
02:11 PM 104.5°F40.3°C 55.4°F13.0°C 20% 3.1 mph SE5.0 kmh SE 3.8 mph6.1 kmh 30.29 in1025.7 mb 6.94 in176.3 mm 0.00 in0.0 mm 13.89 in352.8 mm
02:13 PM 104.7°F40.4°C 55.5°F13.1°C 20% 3.1 mph SE5.0 kmh SE 3.8 mph6.1 kmh 30.28 in1025.4 mb 6.94 in176.3 mm 0.00 in0.0 mm 13.89 in352.8 mm
02:15 PM 104.7°F40.4°C 56.9°F13.8°C 21% 1.6 mph SE2.6 kmh SE 2.2 mph3.5 kmh 30.28 in1025.4 mb 6.94 in176.3 mm 0.00 in0.0 mm 13.89 in352.8 mm
02:17 PM 104.9°F40.5°C 55.7°F13.2°C 20% 3.1 mph SE5.0 kmh SE 3.8 mph6.1 kmh 30.28 in1025.4 mb 6.94 in176.3 mm 0.00 in0.0 mm 13.89 in352.8 mm
02:19 PM 105.1°F40.6°C 55.8°F13.2°C 20% 3.8 mph SE6.1 kmh SE 4.5 mph7.2 kmh 30.28 in1025.4 mb 6.94 in176.3 mm 0.00 in0.0 mm 13.89 in352.8 mm
02:21 PM 105.1°F40.6°C 55.8°F13.2°C 20% 3.1 mph SE5.0 kmh SE 4.5 mph7.2 kmh 30.29 in1025.7 mb 6.94 in176.3 mm 0.00 in0.0 mm 13.89 in352.8 mm
02:23 PM 105.1°F40.6°C 55.8°F13.2°C 20% 3.8 mph SE6.1 kmh SE 4.5 mph7.2 kmh 30.28 in1025.4 mb 6.94 in176.3 mm 0.00 in0.0 mm 13.89 in352.8 mm
02:25 PM 105.1°F40.6°C 55.8°F13.2°C 20% 2.2 mph SE3.5 kmh SE 3.1 mph5.0 kmh 30.28 in1025.4 mb 6.94 in176.3 mm 0.00 in0.0 mm 13.89 in352.8 mm
02:27 PM 105.3°F40.7°C 56.0°F13.3°C 20% 2.2 mph SE3.5 kmh SE 3.1 mph5.0 kmh 30.28 in1025.4 mb 6.94 in176.3 mm 0.00 in0.0 mm 13.89 in352.8 mm
02:29 PM 105.6°F40.9°C 56.2°F13.4°C 20% 2.2 mph SE3.5 kmh SE 3.8 mph6.1 kmh 30.28 in1025.4 mb 6.94 in176.3 mm 0.00 in0.0 mm 13.89 in352.8 mm
02:31 PM 105.4°F40.8°C 57.4°F14.1°C 21% 3.1 mph SE5.0 kmh SE 3.8 mph6.1 kmh 30.28 in1025.4 mb 6.94 in176.3 mm 0.00 in0.0 mm 13.89 in352.8 mm
02:33 PM 105.4°F40.8°C 56.1°F13.4°C 20% 3.8 mph SE6.1 kmh SE 4.5 mph7.2 kmh 30.28 in1025.4 mb 6.94 in176.3 mm 0.00 in0.0 mm 13.89 in352.8 mm
02:35 PM 105.4°F40.8°C 56.1°F13.4°C 20% 3.8 mph SE6.1 kmh SE 4.5 mph7.2 kmh 30.28 in1025.4 mb 6.94 in176.3 mm 0.00 in0.0 mm 13.89 in352.8 mm
02:37 PM 105.3°F40.7°C 57.3°F14.1°C 21% 3.8 mph SE6.1 kmh SE 4.5 mph7.2 kmh 30.28 in1025.4 mb 6.94 in176.3 mm 0.00 in0.0 mm 13.89 in352.8 mm
02:39 PM 105.3°F40.7°C 57.3°F14.1°C 21% 4.5 mph SE7.2 kmh SE 5.4 mph8.7 kmh 30.28 in1025.4 mb 6.94 in176.3 mm 0.00 in0.0 mm 13.89 in352.8 mm
02:41 PM 104.9°F40.5°C 55.7°F13.2°C 20% 5.4 mph SE8.7 kmh SE 6.0 mph9.7 kmh 30.28 in1025.4 mb 6.94 in176.3 mm 0.00 in0.0 mm 13.89 in352.8 mm
02:43 PM 104.5°F40.3°C 55.4°F13.0°C 20% 5.4 mph SE8.7 kmh SE 6.0 mph9.7 kmh 30.28 in1025.4 mb 6.94 in176.3 mm 0.00 in0.0 mm 13.89 in352.8 mm
02:45 PM 104.4°F40.2°C 55.2°F12.9°C 20% 4.5 mph SE7.2 kmh SE 5.4 mph8.7 kmh 30.28 in1025.4 mb 6.94 in176.3 mm 0.00 in0.0 mm 13.89 in352.8 mm
02:47 PM 104.2°F40.1°C 56.4°F13.6°C 21% 5.4 mph SE8.7 kmh SE 5.4 mph8.7 kmh 30.28 in1025.4 mb 6.94 in176.3 mm 0.00 in0.0 mm 13.89 in352.8 mm
02:49 PM 104.0°F40.0°C 56.3°F13.5°C 21% 4.5 mph SE7.2 kmh SE 5.4 mph8.7 kmh 30.28 in1025.4 mb 6.94 in176.3 mm 0.00 in0.0 mm 13.89 in352.8 mm
02:51 PM 103.8°F39.9°C 54.8°F12.7°C 20% 4.5 mph SE7.2 kmh SE 5.4 mph8.7 kmh 30.28 in1025.4 mb 6.94 in176.3 mm 0.00 in0.0 mm 13.89 in352.8 mm
02:53 PM 103.8°F39.9°C 56.1°F13.4°C 21% 4.5 mph SE7.2 kmh SE 5.4 mph8.7 kmh 30.27 in1025.1 mb 6.94 in176.3 mm 0.00 in0.0 mm 13.89 in352.8 mm
02:55 PM 103.8°F39.9°C 56.1°F13.4°C 21% 4.5 mph SE7.2 kmh SE 5.4 mph8.7 kmh 30.28 in1025.4 mb 6.94 in176.3 mm 0.00 in0.0 mm 13.89 in352.8 mm
02:57 PM 103.8°F39.9°C 56.1°F13.4°C 21% 4.5 mph SE7.2 kmh SE 5.4 mph8.7 kmh 30.28 in1025.4 mb 6.94 in176.3 mm 0.00 in0.0 mm 13.89 in352.8 mm
02:59 PM 104.0°F40.0°C 56.3°F13.5°C 21% 3.8 mph SE6.1 kmh SE 4.5 mph7.2 kmh 30.27 in1025.1 mb 6.94 in176.3 mm 0.00 in0.0 mm 13.89 in352.8 mm
03:01 PM 104.0°F40.0°C 54.9°F12.7°C 20% 3.8 mph SE6.1 kmh SE 4.5 mph7.2 kmh 30.27 in1025.1 mb 6.94 in176.3 mm 0.00 in0.0 mm 13.89 in352.8 mm
03:03 PM 104.2°F40.1°C 56.4°F13.6°C 21% 3.1 mph SE5.0 kmh SE 3.8 mph6.1 kmh 30.28 in1025.4 mb 6.94 in176.3 mm 0.00 in0.0 mm 13.89 in352.8 mm
03:05 PM 104.5°F40.3°C 55.4°F13.0°C 20% 3.8 mph SE6.1 kmh SE 4.5 mph7.2 kmh 30.27 in1025.1 mb 6.94 in176.3 mm 0.00 in0.0 mm 13.89 in352.8 mm
03:07 PM 104.9°F40.5°C 57.0°F13.9°C 21% 4.5 mph SE7.2 kmh SE 5.4 mph8.7 kmh 30.27 in1025.1 mb 6.94 in176.3 mm 0.00 in0.0 mm 13.89 in352.8 mm
03:09 PM 105.1°F40.6°C 55.8°F13.2°C 20% 3.8 mph SE6.1 kmh SE 4.5 mph7.2 kmh 30.27 in1025.1 mb 6.94 in176.3 mm 0.00 in0.0 mm 13.89 in352.8 mm
03:11 PM 105.3°F40.7°C 56.0°F13.3°C 20% 2.2 mph SE3.5 kmh SE 3.1 mph5.0 kmh 30.27 in1025.1 mb 6.94 in176.3 mm 0.00 in0.0 mm 13.89 in352.8 mm
03:13 PM 105.6°F40.9°C 56.2°F13.4°C 20% 3.1 mph SE5.0 kmh SE 3.8 mph6.1 kmh 30.27 in1025.1 mb 6.94 in176.3 mm 0.00 in0.0 mm 13.89 in352.8 mm
03:15 PM 106.0°F41.1°C 56.5°F13.6°C 20% 3.1 mph SE5.0 kmh SE 3.8 mph6.1 kmh 30.27 in1025.1 mb 6.94 in176.3 mm 0.00 in0.0 mm 13.89 in352.8 mm
03:17 PM 106.5°F41.4°C 57.0°F13.9°C 20% 2.2 mph SE3.5 kmh SE 3.1 mph5.0 kmh 30.27 in1025.1 mb 6.94 in176.3 mm 0.00 in0.0 mm 13.89 in352.8 mm
03:19 PM 107.1°F41.7°C 57.4°F14.1°C 20% 2.2 mph SE3.5 kmh SE 3.1 mph5.0 kmh 30.28 in1025.4 mb 6.94 in176.3 mm 0.00 in0.0 mm 13.89 in352.8 mm
03:21 PM 107.6°F42.0°C 57.9°F14.4°C 20% 0.7 mph SE1.1 kmh SE 1.6 mph2.6 kmh 30.27 in1025.1 mb 6.94 in176.3 mm 0.00 in0.0 mm 13.89 in352.8 mm
03:23 PM 108.1°F42.3°C 59.7°F15.4°C 21% 2.2 mph SE3.5 kmh SE 3.1 mph5.0 kmh 30.27 in1025.1 mb 6.94 in176.3 mm 0.00 in0.0 mm 13.89 in352.8 mm
03:25 PM 108.5°F42.5°C 58.6°F14.8°C 20% 3.1 mph SE5.0 kmh SE 3.8 mph6.1 kmh 30.27 in1025.1 mb 6.94 in176.3 mm 0.00 in0.0 mm 13.89 in352.8 mm
03:27 PM 108.9°F42.7°C 58.9°F14.9°C 20% 3.1 mph SE5.0 kmh SE 3.8 mph6.1 kmh 30.27 in1025.1 mb 6.94 in176.3 mm 0.00 in0.0 mm 13.89 in352.8 mm
03:29 PM 109.2°F42.9°C 49.4°F9.7°C 14% 1.6 mph SE2.6 kmh SE 2.2 mph3.5 kmh 30.27 in1025.1 mb 6.94 in176.3 mm 0.00 in0.0 mm 13.89 in352.8 mm
03:31 PM 109.6°F43.1°C 47.7°F8.7°C 13% 0.7 mph SE1.1 kmh SE 2.2 mph3.5 kmh 30.27 in1025.1 mb 6.94 in176.3 mm 0.00 in0.0 mm 13.89 in352.8 mm
03:33 PM 110.3°F43.5°C 58.6°F14.8°C 19% 2.2 mph SE3.5 kmh SE 3.1 mph5.0 kmh 30.27 in1025.1 mb 6.94 in176.3 mm 0.00 in0.0 mm 13.89 in352.8 mm
03:35 PM 110.7°F43.7°C 52.4°F11.3°C 15% 3.1 mph SE5.0 kmh SE 3.8 mph6.1 kmh 30.27 in1025.1 mb 6.94 in176.3 mm 0.00 in0.0 mm 13.89 in352.8 mm
03:37 PM 111.4°F44.1°C 59.5°F15.3°C 19% 2.2 mph SE3.5 kmh SE 3.1 mph5.0 kmh 30.27 in1025.1 mb 6.94 in176.3 mm 0.00 in0.0 mm 13.89 in352.8 mm
03:39 PM 111.7°F44.3°C 53.2°F11.8°C 15% 2.2 mph SE3.5 kmh SE 3.1 mph5.0 kmh 30.27 in1025.1 mb 6.94 in176.3 mm 0.00 in0.0 mm 13.89 in352.8 mm
03:41 PM 112.3°F44.6°C 47.6°F8.7°C 12% 1.6 mph SE2.6 kmh SE 2.2 mph3.5 kmh 30.27 in1025.1 mb 6.94 in176.3 mm 0.00 in0.0 mm 13.89 in352.8 mm
03:43 PM 112.5°F44.7°C 57.2°F14.0°C 17% 0.7 mph SE1.1 kmh SE 1.6 mph2.6 kmh 30.27 in1025.1 mb 6.94 in176.3 mm 0.00 in0.0 mm 13.89 in352.8 mm
03:45 PM 113.0°F45.0°C 56.0°F13.3°C 16% 1.6 mph SE2.6 kmh SE 2.2 mph3.5 kmh 30.27 in1025.1 mb 6.94 in176.3 mm 0.00 in0.0 mm 13.89 in352.8 mm
03:47 PM 113.4°F45.2°C 54.5°F12.5°C 15% 1.6 mph SE2.6 kmh SE 2.2 mph3.5 kmh 30.27 in1025.1 mb 6.94 in176.3 mm 0.00 in0.0 mm 13.89 in352.8 mm
03:49 PM 114.1°F45.6°C 56.8°F13.8°C 16% 0.7 mph SE1.1 kmh SE 1.6 mph2.6 kmh 30.27 in1025.1 mb 6.94 in176.3 mm 0.00 in0.0 mm 13.89 in352.8 mm
03:51 PM 114.6°F45.9°C 55.5°F13.1°C 15% 0.7 mph SE1.1 kmh SE 1.6 mph2.6 kmh 30.27 in1025.1 mb 6.94 in176.3 mm 0.00 in0.0 mm 13.89 in352.8 mm
03:53 PM 115.3°F46.3°C 61.1°F16.2°C 18% 0.7 mph SE1.1 kmh SE 1.6 mph2.6 kmh 30.27 in1025.1 mb 6.94 in176.3 mm 0.00 in0.0 mm 13.89 in352.8 mm
03:55 PM 115.7°F46.5°C 54.4°F12.4°C 14% 0.7 mph SE1.1 kmh SE 1.6 mph2.6 kmh 30.27 in1025.1 mb 6.94 in176.3 mm 0.00 in0.0 mm 13.89 in352.8 mm
03:57 PM 115.9°F46.6°C 54.6°F12.6°C 14% 0.7 mph SE1.1 kmh SE 1.6 mph2.6 kmh 30.27 in1025.1 mb 6.94 in176.3 mm 0.00 in0.0 mm 13.89 in352.8 mm
03:59 PM 115.9°F46.6°C 54.6°F12.6°C 14% 0.7 mph SE1.1 kmh SE 1.6 mph2.6 kmh 30.27 in1025.1 mb 6.94 in176.3 mm 0.00 in0.0 mm 13.89 in352.8 mm
04:01 PM 116.1°F46.7°C 61.7°F16.5°C 18% 0.7 mph SE1.1 kmh SE 1.6 mph2.6 kmh 30.27 in1025.1 mb 6.94 in176.3 mm 0.00 in0.0 mm 13.89 in352.8 mm
04:03 PM 116.2°F46.8°C 58.5°F14.7°C 16% Calm Calm 0.7 mph1.1 kmh 30.27 in1025.1 mb 6.94 in176.3 mm 0.00 in0.0 mm 13.89 in352.8 mm
04:05 PM 116.4°F46.9°C 60.4°F15.8°C 17% 0.7 mph SE1.1 kmh SE 1.6 mph2.6 kmh 30.27 in1025.1 mb 6.94 in176.3 mm 0.00 in0.0 mm 13.89 in352.8 mm
04:07 PM 116.4°F46.9°C 56.9°F13.8°C 15% 0.7 mph SE1.1 kmh SE 1.6 mph2.6 kmh 30.26 in1024.7 mb 6.94 in176.3 mm 0.00 in0.0 mm 13.89 in352.8 mm
04:09 PM 116.8°F47.1°C 53.2°F11.8°C 13% Calm Calm 0.7 mph1.1 kmh 30.26 in1024.7 mb 6.94 in176.3 mm 0.00 in0.0 mm 13.89 in352.8 mm
04:11 PM 117.0°F47.2°C 48.8°F9.3°C 11% 0.7 mph SE1.1 kmh SE 1.6 mph2.6 kmh 30.26 in1024.7 mb 6.94 in176.3 mm 0.00 in0.0 mm 13.89 in352.8 mm
04:13 PM 117.3°F47.4°C 51.5°F10.8°C 12% 0.7 mph SE1.1 kmh SE 1.6 mph2.6 kmh 30.26 in1024.7 mb 6.94 in176.3 mm 0.00 in0.0 mm 13.89 in352.8 mm
04:15 PM 117.7°F47.6°C 49.4°F9.7°C 11% 0.7 mph SE1.1 kmh SE 0.7 mph1.1 kmh 30.26 in1024.7 mb 6.94 in176.3 mm 0.00 in0.0 mm 13.89 in352.8 mm
04:17 PM 118.0°F47.8°C 49.7°F9.8°C 11% Calm Calm 0.7 mph1.1 kmh 30.26 in1024.7 mb 6.94 in176.3 mm 0.00 in0.0 mm 13.89 in352.8 mm
04:19 PM 118.4°F48.0°C 49.9°F9.9°C 11% Calm Calm 0.7 mph1.1 kmh 30.26 in1024.7 mb 6.94 in176.3 mm 0.00 in0.0 mm 13.89 in352.8 mm
04:22 PM 118.8°F48.2°C 50.2°F10.1°C 11% Calm Calm 0.7 mph1.1 kmh 30.26 in1024.7 mb 6.94 in176.3 mm 0.00 in0.0 mm 13.89 in352.8 mm
04:24 PM 118.8°F48.2°C 56.8°F13.8°C 14% 0.7 mph SE1.1 kmh SE 1.6 mph2.6 kmh 30.25 in1024.4 mb 6.94 in176.3 mm 0.00 in0.0 mm 13.89 in352.8 mm
04:26 PM 116.8°F47.1°C 59.0°F15.0°C 16% 1.6 mph SE2.6 kmh SE 2.2 mph3.5 kmh 30.26 in1024.7 mb 6.94 in176.3 mm 0.00 in0.0 mm 13.89 in352.8 mm
04:28 PM 114.8°F46.0°C 53.7°F12.1°C 14% 0.7 mph SE1.1 kmh SE 1.6 mph2.6 kmh 30.25 in1024.4 mb 6.94 in176.3 mm 0.00 in0.0 mm 13.89 in352.8 mm
04:30 PM 112.8°F44.9°C 52.2°F11.2°C 14% 0.7 mph SE1.1 kmh SE 1.6 mph2.6 kmh 30.26 in1024.7 mb 6.94 in176.3 mm 0.00 in0.0 mm 13.89 in352.8 mm
04:32 PM 111.9°F44.4°C 51.5°F10.8°C 14% 0.7 mph SE1.1 kmh SE 1.6 mph2.6 kmh 30.25 in1024.4 mb 6.94 in176.3 mm 0.00 in0.0 mm 13.89 in352.8 mm
04:34 PM 111.0°F43.9°C 50.8°F10.4°C 14% Calm Calm 0.7 mph1.1 kmh 30.26 in1024.7 mb 6.94 in176.3 mm 0.00 in0.0 mm 13.89 in352.8 mm
04:36 PM 111.0°F43.9°C 50.8°F10.4°C 14% Calm Calm 0.7 mph1.1 kmh 30.25 in1024.4 mb 6.94 in176.3 mm 0.00 in0.0 mm 13.89 in352.8 mm
04:38 PM 111.0°F43.9°C 56.1°F13.4°C 17% Calm Calm 0.7 mph1.1 kmh 30.25 in1024.4 mb 6.94 in176.3 mm 0.00 in0.0 mm 13.89 in352.8 mm
04:40 PM 111.2°F44.0°C 54.6°F12.6°C 16% Calm Calm 0.7 mph1.1 kmh 30.26 in1024.7 mb 6.94 in176.3 mm 0.00 in0.0 mm 13.89 in352.8 mm
04:42 PM 112.1°F44.5°C 51.6°F10.9°C 14% 0.7 mph SE1.1 kmh SE 0.7 mph1.1 kmh 30.26 in1024.7 mb 6.94 in176.3 mm 0.00 in0.0 mm 13.89 in352.8 mm
04:44 PM 112.8°F44.9°C 50.2°F10.1°C 13% 0.7 mph SE1.1 kmh SE 1.6 mph2.6 kmh 30.26 in1024.7 mb 6.94 in176.3 mm 0.00 in0.0 mm 13.89 in352.8 mm
04:46 PM 113.9°F45.5°C 48.9°F9.4°C 12% Calm Calm 0.7 mph1.1 kmh 30.25 in1024.4 mb 6.94 in176.3 mm 0.00 in0.0 mm 13.89 in352.8 mm
04:48 PM 114.4°F45.8°C 49.3°F9.6°C 12% 0.7 mph SE1.1 kmh SE 0.7 mph1.1 kmh 30.25 in1024.4 mb 6.94 in176.3 mm 0.00 in0.0 mm 13.89 in352.8 mm
04:50 PM 115.7°F46.5°C 47.9°F8.8°C 11% 0.7 mph SE1.1 kmh SE 1.6 mph2.6 kmh 30.26 in1024.7 mb 6.94 in176.3 mm 0.00 in0.0 mm 13.89 in352.8 mm
04:52 PM 116.2°F46.8°C 48.3°F9.1°C 11% 1.6 mph SE2.6 kmh SE 2.2 mph3.5 kmh 30.25 in1024.4 mb 6.94 in176.3 mm 0.00 in0.0 mm 13.89 in352.8 mm
04:54 PM 117.0°F47.2°C 48.8°F9.3°C 11% 1.6 mph SE2.6 kmh SE 2.2 mph3.5 kmh 30.25 in1024.4 mb 6.94 in176.3 mm 0.00 in0.0 mm 13.89 in352.8 mm
04:56 PM 117.5°F47.5°C 51.6°F10.9°C 12% 2.2 mph SE3.5 kmh SE 3.1 mph5.0 kmh 30.25 in1024.4 mb 6.94 in176.3 mm 0.00 in0.0 mm 13.89 in352.8 mm
04:58 PM 117.7°F47.6°C 57.9°F14.4°C 15% 2.2 mph SE3.5 kmh SE 3.1 mph5.0 kmh 30.25 in1024.4 mb 6.94 in176.3 mm 0.00 in0.0 mm 13.89 in352.8 mm
05:00 PM 117.5°F47.5°C 61.2°F16.2°C 17% 1.6 mph SE2.6 kmh SE 2.2 mph3.5 kmh 30.24 in1024.0 mb 6.94 in176.3 mm 0.00 in0.0 mm 13.89 in352.8 mm
05:02 PM 117.1°F47.3°C 65.6°F18.7°C 20% 1.6 mph SE2.6 kmh SE 2.2 mph3.5 kmh 30.25 in1024.4 mb 6.94 in176.3 mm 0.00 in0.0 mm 13.89 in352.8 mm
05:04 PM 117.0°F47.2°C 65.4°F18.6°C 20% 1.6 mph SE2.6 kmh SE 2.2 mph3.5 kmh 30.24 in1024.0 mb 6.94 in176.3 mm 0.00 in0.0 mm 13.89 in352.8 mm
05:06 PM 116.4°F46.9°C 65.0°F18.3°C 20% 2.2 mph SE3.5 kmh SE 3.1 mph5.0 kmh 30.24 in1024.0 mb 6.94 in176.3 mm 0.00 in0.0 mm 13.89 in352.8 mm
05:08 PM 116.2°F46.8°C 64.9°F18.3°C 20% 1.6 mph SE2.6 kmh SE 2.2 mph3.5 kmh 30.25 in1024.4 mb 6.94 in176.3 mm 0.00 in0.0 mm 13.89 in352.8 mm
05:10 PM 115.9°F46.6°C 64.6°F18.1°C 20% 1.6 mph SE2.6 kmh SE 2.2 mph3.5 kmh 30.24 in1024.0 mb 6.94 in176.3 mm 0.00 in0.0 mm 13.89 in352.8 mm
05:12 PM 115.5°F46.4°C 64.3°F17.9°C 20% 1.6 mph SE2.6 kmh SE 3.1 mph5.0 kmh 30.24 in1024.0 mb 6.94 in176.3 mm 0.00 in0.0 mm 13.89 in352.8 mm
05:14 PM 114.4°F45.8°C 63.4°F17.4°C 20% 1.6 mph SE2.6 kmh SE 3.1 mph5.0 kmh 30.24 in1024.0 mb 6.94 in176.3 mm 0.00 in0.0 mm 13.89 in352.8 mm
05:16 PM 113.5°F45.3°C 64.1°F17.8°C 21% 2.2 mph SE3.5 kmh SE 3.1 mph5.0 kmh 30.24 in1024.0 mb 6.94 in176.3 mm 0.00 in0.0 mm 13.89 in352.8 mm
05:18 PM 112.1°F44.5°C 62.9°F17.2°C 21% 2.2 mph SE3.5 kmh SE 3.1 mph5.0 kmh 30.25 in1024.4 mb 6.94 in176.3 mm 0.00 in0.0 mm 13.89 in352.8 mm
05:20 PM 109.8°F43.2°C 61.0°F16.1°C 21% 2.2 mph SE3.5 kmh SE 3.1 mph5.0 kmh 30.24 in1024.0 mb 6.94 in176.3 mm 0.00 in0.0 mm 13.89 in352.8 mm
05:22 PM 107.4°F41.9°C 62.8°F17.1°C 24% 2.2 mph SE3.5 kmh SE 3.1 mph5.0 kmh 30.24 in1024.0 mb 6.94 in176.3 mm 0.00 in0.0 mm 13.89 in352.8 mm
05:24 PM 106.0°F41.1°C 60.4°F15.8°C 23% 1.6 mph SE2.6 kmh SE 2.2 mph3.5 kmh 30.24 in1024.0 mb 6.94 in176.3 mm 0.00 in0.0 mm 13.89 in352.8 mm
05:26 PM 104.2°F40.1°C 57.7°F14.3°C 22% 1.6 mph SE2.6 kmh SE 2.2 mph3.5 kmh 30.24 in1024.0 mb 6.94 in176.3 mm 0.00 in0.0 mm 13.89 in352.8 mm
05:28 PM 103.3°F39.6°C 58.2°F14.6°C 23% 0.7 mph SE1.1 kmh SE 1.6 mph2.6 kmh 30.24 in1024.0 mb 6.94 in176.3 mm 0.00 in0.0 mm 13.89 in352.8 mm
05:30 PM 102.2°F39.0°C 59.6°F15.3°C 25% 1.6 mph SE2.6 kmh SE 1.6 mph2.6 kmh 30.24 in1024.0 mb 6.94 in176.3 mm 0.00 in0.0 mm 13.89 in352.8 mm
05:32 PM 101.7°F38.7°C 59.2°F15.1°C 25% 1.6 mph SE2.6 kmh SE 2.2 mph3.5 kmh 30.24 in1024.0 mb 6.94 in176.3 mm 0.00 in0.0 mm 13.89 in352.8 mm
05:34 PM 100.9°F38.3°C 58.6°F14.8°C 25% 1.6 mph SE2.6 kmh SE 2.2 mph3.5 kmh 30.24 in1024.0 mb 6.94 in176.3 mm 0.00 in0.0 mm 13.89 in352.8 mm
05:36 PM 99.9°F37.7°C 54.2°F12.3°C 22% 1.6 mph SE2.6 kmh SE 1.6 mph2.6 kmh 30.24 in1024.0 mb 6.94 in176.3 mm 0.00 in0.0 mm 13.89 in352.8 mm
05:38 PM 99.0°F37.2°C 55.8°F13.2°C 24% 0.7 mph SE1.1 kmh SE 1.6 mph2.6 kmh 30.24 in1024.0 mb 6.94 in176.3 mm 0.00 in0.0 mm 13.89 in352.8 mm
05:40 PM 98.2°F36.8°C 55.2°F12.9°C 24% Calm Calm 0.7 mph1.1 kmh 30.24 in1024.0 mb 6.94 in176.3 mm 0.00 in0.0 mm 13.89 in352.8 mm
05:42 PM 97.5°F36.4°C 54.6°F12.6°C 24% 0.7 mph SE1.1 kmh SE 1.6 mph2.6 kmh 30.23 in1023.7 mb 6.94 in176.3 mm 0.00 in0.0 mm 13.89 in352.8 mm
05:44 PM 97.2°F36.2°C 54.3°F12.4°C 24% Calm Calm 0.7 mph1.1 kmh 30.24 in1024.0 mb 6.94 in176.3 mm 0.00 in0.0 mm 13.89 in352.8 mm
05:46 PM 96.3°F35.7°C 54.7°F12.6°C 25% 0.7 mph SE1.1 kmh SE 1.6 mph2.6 kmh 30.24 in1024.0 mb 6.94 in176.3 mm 0.00 in0.0 mm 13.89 in352.8 mm
05:48 PM 95.9°F35.5°C 55.4°F13.0°C 26% Calm Calm -- 30.23 in1023.7 mb 6.94 in176.3 mm 0.00 in0.0 mm 13.89 in352.8 mm
05:50 PM 95.2°F35.1°C 55.9°F13.3°C 27% Calm Calm 0.7 mph1.1 kmh 30.24 in1024.0 mb 6.94 in176.3 mm 0.00 in0.0 mm 13.89 in352.8 mm
05:52 PM 94.6°F34.8°C 57.4°F14.1°C 29% Calm Calm -- 30.24 in1024.0 mb 6.94 in176.3 mm 0.00 in0.0 mm 13.89 in352.8 mm
05:54 PM 93.9°F34.4°C 57.7°F14.3°C 30% Calm Calm -- 30.23 in1023.7 mb 6.94 in176.3 mm 0.00 in0.0 mm 13.89 in352.8 mm
05:56 PM 93.4°F34.1°C 57.3°F14.1°C 30% Calm Calm -- 30.24 in1024.0 mb 6.94 in176.3 mm 0.00 in0.0 mm 13.89 in352.8 mm
05:58 PM 92.7°F33.7°C 56.6°F13.7°C 30% Calm Calm -- 30.23 in1023.7 mb 6.94 in176.3 mm 0.00 in0.0 mm 13.89 in352.8 mm
06:00 PM 92.1°F33.4°C 57.1°F13.9°C 31% Calm Calm -- 30.24 in1024.0 mb 6.94 in176.3 mm 0.00 in0.0 mm 13.89 in352.8 mm
06:02 PM 91.4°F33.0°C 56.5°F13.6°C 31% Calm Calm -- 30.23 in1023.7 mb 6.94 in176.3 mm 0.00 in0.0 mm 13.89 in352.8 mm
06:04 PM 91.0°F32.8°C 56.2°F13.4°C 31% Calm Calm -- 30.23 in1023.7 mb 6.94 in176.3 mm 0.00 in0.0 mm 13.89 in352.8 mm
06:08 PM 90.0°F32.2°C 57.8°F14.3°C 34% Calm Calm -- 30.24 in1024.0 mb 6.94 in176.3 mm 0.00 in0.0 mm 13.89 in352.8 mm
06:10 PM 89.6°F32.0°C 57.5°F14.2°C 34% Calm Calm -- 30.24 in1024.0 mb 6.94 in176.3 mm 0.00 in0.0 mm 13.89 in352.8 mm
06:12 PM 89.2°F31.8°C 57.2°F14.0°C 34% Calm Calm -- 30.23 in1023.7 mb 6.94 in176.3 mm 0.00 in0.0 mm 13.89 in352.8 mm
06:14 PM 88.7°F31.5°C 55.9°F13.3°C 33% Calm Calm -- 30.24 in1024.0 mb 6.94 in176.3 mm 0.00 in0.0 mm 13.89 in352.8 mm
06:16 PM 88.5°F31.4°C 55.7°F13.2°C 33% Calm Calm -- 30.23 in1023.7 mb 6.94 in176.3 mm 0.00 in0.0 mm 13.89 in352.8 mm
06:18 PM 88.2°F31.2°C 55.4°F13.0°C 33% Calm Calm -- 30.23 in1023.7 mb 6.94 in176.3 mm 0.00 in0.0 mm 13.89 in352.8 mm
06:20 PM 88.0°F31.1°C 54.4°F12.4°C 32% Calm Calm -- 30.23 in1023.7 mb 6.94 in176.3 mm 0.00 in0.0 mm 13.89 in352.8 mm
06:22 PM 87.6°F30.9°C 54.1°F12.3°C 32% Calm Calm -- 30.23 in1023.7 mb 6.94 in176.3 mm 0.00 in0.0 mm 13.89 in352.8 mm